»·PEaware :: PSV40F KASE-KGJT

PSV40F :: KASE-KGJT

FLIGHT INFORMATION

Flight Status: Arrived
Operator:
Power Set Virtual (website)
More flights by this operator :: More flights under this callsign
Pilot: Pratham R. (19019)
Aircraft: SOCATA TBM-900
(TBM9)
More flights by this aircraft type
Origin: KASE Aspen-Pitkin Co/Sardy
United States
Destination: KGJT Grand Junction Regl
United States
More flights between these airports :: More routes between these airports
Route: +LINDZ9 JNC
File this flight plan on PilotEdge
Remarks: RMK / SIMBRIEF
Altitude:
(Current/Filed)
16,000ft
Speed:
(Current/Filed)
287kts
Departed: 08-Apr-20 04:12 PM
Arrived: 08-Apr-20 05:44 PM
Distance/Time
Traveled:
77nm/1:32
Distance/Time
To Go:
Arrived

Flight Plot

Page will automatically refresh every two minutes.

Flight plan parsing failed; only flown route is shown


Map Options




Map Legend


Flown Route
Filed Route
Departure Airport
Arrival Airport
Navaid (VOR, NDB)
Fix

Horizontal Profiles

Position Reports

Time Latitude Longitude Heading Altitude Ground
Speed
08-Apr-20 15:45 39.221825 -106.866590 250 7837ft 0kts
08-Apr-20 15:46 39.221825 -106.866590 250 7837ft 0kts
08-Apr-20 15:47 39.221825 -106.866590 250 7837ft 0kts
08-Apr-20 15:48 39.221825 -106.866590 250 7837ft 0kts
08-Apr-20 15:49 39.221825 -106.866590 250 7837ft 0kts
08-Apr-20 15:49 39.221825 -106.866590 250 7837ft 0kts
08-Apr-20 15:50 39.221825 -106.866590 250 7837ft 0kts
08-Apr-20 15:52 39.221825 -106.866590 250 7837ft 0kts
08-Apr-20 15:52 39.221825 -106.866590 250 7837ft 0kts
08-Apr-20 15:53 39.221825 -106.866590 250 7837ft 0kts
08-Apr-20 15:54 39.221825 -106.866590 250 7837ft 0kts
08-Apr-20 15:56 39.221825 -106.866590 250 7837ft 0kts
08-Apr-20 15:56 39.221825 -106.866590 250 7837ft 0kts
08-Apr-20 15:57 39.221825 -106.866590 250 7837ft 0kts
08-Apr-20 15:58 39.221825 -106.866590 250 7837ft 0kts
08-Apr-20 15:59 39.221825 -106.866590 250 7837ft 0kts
08-Apr-20 16:00 39.221825 -106.866590 250 7837ft 0kts
08-Apr-20 16:01 39.221825 -106.866590 250 7837ft 0kts
08-Apr-20 16:02 39.221825 -106.866590 250 7837ft 0kts
08-Apr-20 16:03 39.221641 -106.866943 186 7837ft 6kts
08-Apr-20 16:04 39.217737 -106.865111 159 7837ft 17kts
08-Apr-20 16:05 39.214141 -106.863390 158 7837ft 10kts
08-Apr-20 16:06 39.212185 -106.862576 186 7837ft 1kts
08-Apr-20 16:07 39.212181 -106.862577 186 7837ft 0kts
08-Apr-20 16:08 39.212179 -106.862577 186 7837ft 0kts
08-Apr-20 16:09 39.211838 -106.863083 268 7837ft 8kts
08-Apr-20 16:10 39.212346 -106.863695 339 7837ft 0kts
08-Apr-20 16:11 39.234187 -106.873001 347 8434ft 138kts
08-Apr-20 16:12 39.258615 -106.901042 283 10536ft 142kts
08-Apr-20 16:13 39.266883 -106.952776 281 12160ft 166kts
08-Apr-20 16:14 39.278722 -107.015168 307 13934ft 182kts
08-Apr-20 16:15 39.314372 -107.061994 312 15870ft 184kts
08-Apr-20 16:16 39.355992 -107.115678 312 16033ft 232kts
08-Apr-20 16:17 39.382940 -107.187846 257 16034ft 247kts
08-Apr-20 16:18 39.365828 -107.276133 257 16017ft 252kts
08-Apr-20 16:19 39.348425 -107.365366 257 15992ft 254kts
08-Apr-20 16:20 39.330915 -107.454761 257 15961ft 255kts
08-Apr-20 16:21 39.313511 -107.543239 257 16071ft 252kts
08-Apr-20 16:22 39.296030 -107.631706 257 16071ft 253kts
08-Apr-20 16:23 39.278429 -107.720370 256 16074ft 254kts
08-Apr-20 16:24 39.260677 -107.809410 256 16067ft 255kts
08-Apr-20 16:25 39.242745 -107.898958 256 15062ft 251kts
08-Apr-20 16:26 39.225418 -107.985136 256 14040ft 239kts
08-Apr-20 16:27 39.209689 -108.063045 256 14031ft 212kts
08-Apr-20 16:28 39.195110 -108.135012 257 14033ft 203kts
08-Apr-20 16:29 39.180784 -108.205189 256 14035ft 200kts
08-Apr-20 16:30 39.163162 -108.272769 223 13909ft 211kts
08-Apr-20 16:31 39.113873 -108.320762 219 13053ft 229kts
08-Apr-20 16:32 39.065525 -108.367904 219 13029ft 209kts
08-Apr-20 16:33 39.019598 -108.412465 219 12825ft 213kts
08-Apr-20 16:34 38.968648 -108.463487 219 11694ft 241kts
08-Apr-20 16:35 38.915026 -108.518143 219 10499ft 246kts
08-Apr-20 16:36 38.863054 -108.490593 115 10018ft 225kts
08-Apr-20 16:37 38.860787 -108.422959 38 10030ft 207kts
08-Apr-20 16:38 38.912932 -108.383840 25 9067ft 221kts
08-Apr-20 16:39 38.969521 -108.377025 326 8361ft 214kts
08-Apr-20 16:59 39.225214 -106.868277 204 7837ft 0kts
08-Apr-20 17:00 39.225214 -106.868277 204 7837ft 0kts
08-Apr-20 17:01 39.225214 -106.868277 204 7837ft 0kts
08-Apr-20 17:02 39.225214 -106.868277 204 7837ft 0kts
08-Apr-20 17:03 39.225210 -106.868279 204 7837ft 0kts
08-Apr-20 17:04 39.221620 -106.866959 160 7837ft 22kts
08-Apr-20 17:05 39.214938 -106.863794 159 7837ft 24kts
08-Apr-20 17:06 39.212181 -106.862557 185 7837ft 6kts
08-Apr-20 17:07 39.211977 -106.863524 340 7837ft 0kts
08-Apr-20 17:08 39.235168 -106.874511 340 8317ft 147kts
08-Apr-20 17:09 39.264060 -106.901204 276 10378ft 147kts
08-Apr-20 17:10 39.272003 -106.957506 281 11761ft 176kts
08-Apr-20 17:11 39.283099 -107.020461 304 13227ft 182kts
08-Apr-20 17:12 39.317767 -107.070314 306 14609ft 188kts
08-Apr-20 17:13 39.353719 -107.120546 326 16043ft 216kts
08-Apr-20 17:14 39.382587 -107.188666 258 16026ft 255kts
08-Apr-20 17:15 39.364949 -107.280633 257 16008ft 267kts
08-Apr-20 17:16 39.346502 -107.375205 257 15977ft 270kts
08-Apr-20 17:17 39.327850 -107.470372 257 15939ft 272kts
08-Apr-20 17:18 39.309045 -107.565868 257 15906ft 272kts
08-Apr-20 17:19 39.290531 -107.659440 256 15908ft 271kts
08-Apr-20 17:20 39.271549 -107.754936 256 15909ft 271kts
08-Apr-20 17:21 39.253234 -107.846643 256 15905ft 272kts
08-Apr-20 17:22 39.233947 -107.942774 256 15899ft 272kts
08-Apr-20 17:23 39.214748 -108.038023 256 15891ft 272kts
08-Apr-20 17:24 39.195515 -108.133025 256 15885ft 272kts
08-Apr-20 17:25 39.176241 -108.227790 256 15881ft 272kts
08-Apr-20 17:26 39.156868 -108.322619 256 15880ft 272kts
08-Apr-20 17:27 39.137445 -108.417266 256 15880ft 271kts
08-Apr-20 17:28 39.117644 -108.513335 256 15436ft 271kts
08-Apr-20 17:29 39.098119 -108.607619 256 14354ft 266kts
08-Apr-20 17:30 39.040262 -108.637247 160 13299ft 262kts
08-Apr-20 17:31 38.974876 -108.604775 159 12256ft 241kts
08-Apr-20 17:32 38.915594 -108.576217 159 12014ft 208kts
08-Apr-20 17:33 38.860555 -108.545984 139 11063ft 225kts
08-Apr-20 17:34 38.849020 -108.471912 102 9999ft 186kts
08-Apr-20 17:35 38.863284 -108.420321 35 10001ft 186kts
08-Apr-20 17:36 38.909682 -108.385798 25 9166ft 197kts
08-Apr-20 17:38 38.960655 -108.370073 334 8515ft 185kts
08-Apr-20 17:39 39.006149 -108.406856 349 7632ft 195kts
08-Apr-20 17:40 39.049650 -108.445247 320 6835ft 180kts
08-Apr-20 17:41 39.088092 -108.474247 332 5760ft 148kts
08-Apr-20 17:42 39.111644 -108.501640 304 5226ft 101kts
08-Apr-20 17:43 39.125166 -108.526486 305 4847ft 44kts
08-Apr-20 17:44 39.125574 -108.529688 125 4836ft 7kts
08-Apr-20 17:45 39.123565 -108.526027 126 4842ft 13kts
08-Apr-20 17:46 39.121567 -108.523932 135 4839ft 6kts
08-Apr-20 17:47 39.120504 -108.522068 43 4838ft 0kts
08-Apr-20 17:48 39.120567 -108.521998 40 4838ft 0kts
08-Apr-20 17:49 39.120567 -108.521998 40 4838ft 0kts
08-Apr-20 17:50 39.120567 -108.521998 40 4838ft 0kts
08-Apr-20 17:51 39.120567 -108.521998 40 4838ft 0kts
08-Apr-20 17:52 39.120567 -108.521998 40 4838ft 0kts
08-Apr-20 17:53 39.120567 -108.521998 40 4838ft 0kts
08-Apr-20 17:53 39.120567 -108.521998 40 4838ft 0kts
08-Apr-20 17:55 39.120567 -108.521998 40 4838ft 0kts
08-Apr-20 17:56 39.120567 -108.521998 40 4838ft 0kts
08-Apr-20 17:56 39.120567 -108.521998 40 4838ft 0kts
08-Apr-20 17:57 39.120567 -108.521998 40 4838ft 0kts

Navigation Log

Ident Type
Flight plan parsing failed, navigation log unavailable